sensor_id;sensor_type;location;lat;lon;timestamp;P1;durP1;ratioP1;P2;durP2;ratioP2
6269;SDS011;3168;51.684;6.954;2022-10-29T00:01:01;4.00;;;3.70;;
6269;SDS011;3168;51.684;6.954;2022-10-29T00:03:27;7.87;;;4.60;;
6269;SDS011;3168;51.684;6.954;2022-10-29T00:05:54;9.00;;;5.23;;
6269;SDS011;3168;51.684;6.954;2022-10-29T00:08:27;4.63;;;4.23;;
6269;SDS011;3168;51.684;6.954;2022-10-29T00:10:52;4.07;;;3.00;;
6269;SDS011;3168;51.684;6.954;2022-10-29T00:13:18;4.03;;;3.77;;
6269;SDS011;3168;51.684;6.954;2022-10-29T00:15:44;7.50;;;4.30;;
6269;SDS011;3168;51.684;6.954;2022-10-29T00:18:10;4.97;;;4.40;;
6269;SDS011;3168;51.684;6.954;2022-10-29T00:20:35;4.47;;;3.97;;
6269;SDS011;3168;51.684;6.954;2022-10-29T00:23:02;10.17;;;5.07;;
6269;SDS011;3168;51.684;6.954;2022-10-29T00:25:32;10.50;;;3.83;;
6269;SDS011;3168;51.684;6.954;2022-10-29T00:27:57;8.90;;;4.43;;
6269;SDS011;3168;51.684;6.954;2022-10-29T00:30:24;7.40;;;4.20;;
6269;SDS011;3168;51.684;6.954;2022-10-29T00:32:50;5.60;;;3.97;;
6269;SDS011;3168;51.684;6.954;2022-10-29T00:35:16;9.53;;;4.73;;
6269;SDS011;3168;51.684;6.954;2022-10-29T00:37:42;9.10;;;4.30;;
6269;SDS011;3168;51.684;6.954;2022-10-29T00:40:08;6.17;;;5.57;;
6269;SDS011;3168;51.684;6.954;2022-10-29T00:42:35;7.07;;;4.70;;
6269;SDS011;3168;51.684;6.954;2022-10-29T00:45:01;4.27;;;3.97;;
6269;SDS011;3168;51.684;6.954;2022-10-29T00:47:28;5.70;;;3.70;;
6269;SDS011;3168;51.684;6.954;2022-10-29T00:49:56;3.37;;;2.83;;
6269;SDS011;3168;51.684;6.954;2022-10-29T00:52:21;8.60;;;4.70;;
6269;SDS011;3168;51.684;6.954;2022-10-29T00:54:47;5.27;;;4.77;;
6269;SDS011;3168;51.684;6.954;2022-10-29T00:57:16;13.70;;;4.97;;
6269;SDS011;3168;51.684;6.954;2022-10-29T00:59:40;7.73;;;4.60;;
6269;SDS011;3168;51.684;6.954;2022-10-29T01:02:06;3.90;;;3.57;;
6269;SDS011;3168;51.684;6.954;2022-10-29T01:04:32;5.33;;;4.83;;
6269;SDS011;3168;51.684;6.954;2022-10-29T01:06:57;3.53;;;3.27;;
6269;SDS011;3168;51.684;6.954;2022-10-29T01:09:24;7.30;;;6.80;;
6269;SDS011;3168;51.684;6.954;2022-10-29T01:11:55;4.60;;;4.30;;
6269;SDS011;3168;51.684;6.954;2022-10-29T01:14:31;4.27;;;3.87;;
6269;SDS011;3168;51.684;6.954;2022-10-29T01:19:40;5.70;;;4.60;;
6269;SDS011;3168;51.684;6.954;2022-10-29T01:22:15;5.63;;;4.17;;
6269;SDS011;3168;51.684;6.954;2022-10-29T01:30:17;6.90;;;4.07;;
6269;SDS011;3168;51.684;6.954;2022-10-29T01:32:50;5.30;;;3.77;;
6269;SDS011;3168;51.684;6.954;2022-10-29T01:35:39;5.40;;;4.43;;
6269;SDS011;3168;51.684;6.954;2022-10-29T01:40:36;5.70;;;4.20;;
6269;SDS011;3168;51.684;6.954;2022-10-29T01:43:12;9.33;;;4.20;;
6269;SDS011;3168;51.684;6.954;2022-10-29T01:45:39;4.07;;;3.50;;
6269;SDS011;3168;51.684;6.954;2022-10-29T01:48:04;4.37;;;4.00;;
6269;SDS011;3168;51.684;6.954;2022-10-29T01:50:29;5.47;;;4.40;;
6269;SDS011;3168;51.684;6.954;2022-10-29T01:52:55;4.50;;;3.90;;
6269;SDS011;3168;51.684;6.954;2022-10-29T01:55:22;4.87;;;3.77;;
6269;SDS011;3168;51.684;6.954;2022-10-29T01:57:47;13.13;;;5.03;;
6269;SDS011;3168;51.684;6.954;2022-10-29T02:00:14;11.20;;;4.90;;
6269;SDS011;3168;51.684;6.954;2022-10-29T02:02:52;3.70;;;3.07;;
6269;SDS011;3168;51.684;6.954;2022-10-29T02:05:19;11.07;;;6.73;;
6269;SDS011;3168;51.684;6.954;2022-10-29T02:07:49;6.97;;;3.97;;
6269;SDS011;3168;51.684;6.954;2022-10-29T02:10:18;4.53;;;4.00;;
6269;SDS011;3168;51.684;6.954;2022-10-29T02:12:46;3.90;;;3.70;;
6269;SDS011;3168;51.684;6.954;2022-10-29T02:15:16;5.20;;;4.40;;
6269;SDS011;3168;51.684;6.954;2022-10-29T02:17:40;8.70;;;4.07;;
6269;SDS011;3168;51.684;6.954;2022-10-29T02:20:07;6.10;;;5.00;;
6269;SDS011;3168;51.684;6.954;2022-10-29T02:22:33;7.63;;;3.63;;
6269;SDS011;3168;51.684;6.954;2022-10-29T02:24:59;4.10;;;3.80;;
6269;SDS011;3168;51.684;6.954;2022-10-29T02:27:25;5.13;;;3.77;;
6269;SDS011;3168;51.684;6.954;2022-10-29T02:29:50;11.80;;;4.20;;
6269;SDS011;3168;51.684;6.954;2022-10-29T02:32:16;6.73;;;4.30;;
6269;SDS011;3168;51.684;6.954;2022-10-29T02:34:42;17.87;;;5.73;;
6269;SDS011;3168;51.684;6.954;2022-10-29T02:37:08;4.50;;;3.77;;
6269;SDS011;3168;51.684;6.954;2022-10-29T02:39:34;6.43;;;4.23;;
6269;SDS011;3168;51.684;6.954;2022-10-29T02:41:59;4.87;;;4.47;;
6269;SDS011;3168;51.684;6.954;2022-10-29T02:44:25;7.43;;;3.70;;
6269;SDS011;3168;51.684;6.954;2022-10-29T02:46:51;6.07;;;3.93;;
6269;SDS011;3168;51.684;6.954;2022-10-29T02:49:17;3.70;;;3.57;;
6269;SDS011;3168;51.684;6.954;2022-10-29T02:51:42;8.63;;;4.37;;
6269;SDS011;3168;51.684;6.954;2022-10-29T02:54:08;4.10;;;3.80;;
6269;SDS011;3168;51.684;6.954;2022-10-29T02:56:34;5.70;;;4.27;;
6269;SDS011;3168;51.684;6.954;2022-10-29T02:59:00;6.17;;;3.77;;
6269;SDS011;3168;51.684;6.954;2022-10-29T03:01:25;7.93;;;3.60;;
6269;SDS011;3168;51.684;6.954;2022-10-29T03:03:51;8.43;;;5.07;;
6269;SDS011;3168;51.684;6.954;2022-10-29T03:06:18;5.40;;;4.90;;
6269;SDS011;3168;51.684;6.954;2022-10-29T03:08:43;13.70;;;5.30;;
6269;SDS011;3168;51.684;6.954;2022-10-29T03:11:09;5.93;;;4.27;;
6269;SDS011;3168;51.684;6.954;2022-10-29T03:13:35;7.63;;;4.60;;
6269;SDS011;3168;51.684;6.954;2022-10-29T03:16:01;4.30;;;4.00;;
6269;SDS011;3168;51.684;6.954;2022-10-29T03:18:26;16.93;;;4.53;;
6269;SDS011;3168;51.684;6.954;2022-10-29T03:20:52;7.63;;;4.10;;
6269;SDS011;3168;51.684;6.954;2022-10-29T03:23:18;3.07;;;2.80;;
6269;SDS011;3168;51.684;6.954;2022-10-29T03:25:48;11.03;;;4.17;;
6269;SDS011;3168;51.684;6.954;2022-10-29T03:28:10;4.57;;;4.27;;
6269;SDS011;3168;51.684;6.954;2022-10-29T03:30:36;7.50;;;4.53;;
6269;SDS011;3168;51.684;6.954;2022-10-29T03:33:01;6.13;;;3.90;;
6269;SDS011;3168;51.684;6.954;2022-10-29T03:35:27;7.67;;;5.30;;
6269;SDS011;3168;51.684;6.954;2022-10-29T03:37:53;10.20;;;4.43;;
6269;SDS011;3168;51.684;6.954;2022-10-29T03:40:19;8.83;;;4.50;;
6269;SDS011;3168;51.684;6.954;2022-10-29T03:42:45;6.97;;;4.20;;
6269;SDS011;3168;51.684;6.954;2022-10-29T03:45:10;9.47;;;4.53;;
6269;SDS011;3168;51.684;6.954;2022-10-29T03:47:36;7.97;;;4.10;;
6269;SDS011;3168;51.684;6.954;2022-10-29T03:50:02;8.77;;;4.23;;
6269;SDS011;3168;51.684;6.954;2022-10-29T03:52:28;8.00;;;4.80;;
6269;SDS011;3168;51.684;6.954;2022-10-29T03:54:54;4.00;;;3.70;;
6269;SDS011;3168;51.684;6.954;2022-10-29T03:57:20;10.13;;;4.40;;
6269;SDS011;3168;51.684;6.954;2022-10-29T03:59:46;7.53;;;5.00;;
6269;SDS011;3168;51.684;6.954;2022-10-29T04:02:11;7.57;;;4.40;;
6269;SDS011;3168;51.684;6.954;2022-10-29T04:04:37;7.00;;;4.27;;
6269;SDS011;3168;51.684;6.954;2022-10-29T04:07:03;5.60;;;5.20;;
6269;SDS011;3168;51.684;6.954;2022-10-29T04:09:29;3.70;;;2.73;;
6269;SDS011;3168;51.684;6.954;2022-10-29T04:11:55;3.83;;;3.63;;
6269;SDS011;3168;51.684;6.954;2022-10-29T04:14:21;4.87;;;3.57;;
6269;SDS011;3168;51.684;6.954;2022-10-29T04:16:46;4.43;;;3.80;;
6269;SDS011;3168;51.684;6.954;2022-10-29T04:19:12;3.53;;;3.43;;
6269;SDS011;3168;51.684;6.954;2022-10-29T04:21:38;4.63;;;4.27;;
6269;SDS011;3168;51.684;6.954;2022-10-29T04:24:04;5.80;;;4.20;;
6269;SDS011;3168;51.684;6.954;2022-10-29T04:26:30;6.37;;;3.80;;
6269;SDS011;3168;51.684;6.954;2022-10-29T04:28:56;4.47;;;3.60;;
6269;SDS011;3168;51.684;6.954;2022-10-29T04:31:22;4.67;;;4.20;;
6269;SDS011;3168;51.684;6.954;2022-10-29T04:33:48;3.70;;;3.50;;
6269;SDS011;3168;51.684;6.954;2022-10-29T04:36:13;4.00;;;3.80;;
6269;SDS011;3168;51.684;6.954;2022-10-29T04:38:39;3.87;;;3.57;;
6269;SDS011;3168;51.684;6.954;2022-10-29T04:41:05;4.93;;;4.13;;
6269;SDS011;3168;51.684;6.954;2022-10-29T04:43:32;4.37;;;4.07;;
6269;SDS011;3168;51.684;6.954;2022-10-29T04:45:57;14.50;;;5.00;;
6269;SDS011;3168;51.684;6.954;2022-10-29T04:48:25;4.03;;;3.73;;
6269;SDS011;3168;51.684;6.954;2022-10-29T04:50:50;7.17;;;5.20;;
6269;SDS011;3168;51.684;6.954;2022-10-29T04:53:16;7.63;;;5.33;;
6269;SDS011;3168;51.684;6.954;2022-10-29T04:55:42;5.03;;;4.60;;
6269;SDS011;3168;51.684;6.954;2022-10-29T04:58:11;5.90;;;4.33;;
6269;SDS011;3168;51.684;6.954;2022-10-29T05:00:33;5.63;;;3.57;;
6269;SDS011;3168;51.684;6.954;2022-10-29T05:02:59;5.13;;;4.70;;
6269;SDS011;3168;51.684;6.954;2022-10-29T05:05:25;9.60;;;4.43;;
6269;SDS011;3168;51.684;6.954;2022-10-29T05:07:55;8.33;;;6.27;;
6269;SDS011;3168;51.684;6.954;2022-10-29T05:10:20;12.63;;;4.50;;
6269;SDS011;3168;51.684;6.954;2022-10-29T05:12:46;6.60;;;4.60;;
6269;SDS011;3168;51.684;6.954;2022-10-29T05:15:12;5.53;;;4.47;;
6269;SDS011;3168;51.684;6.954;2022-10-29T05:17:37;13.67;;;5.13;;
6269;SDS011;3168;51.684;6.954;2022-10-29T05:20:04;5.13;;;4.70;;
6269;SDS011;3168;51.684;6.954;2022-10-29T05:22:30;6.10;;;4.27;;
6269;SDS011;3168;51.684;6.954;2022-10-29T05:24:56;3.90;;;3.60;;
6269;SDS011;3168;51.684;6.954;2022-10-29T05:27:22;5.77;;;4.20;;
6269;SDS011;3168;51.684;6.954;2022-10-29T05:29:48;5.43;;;5.03;;
6269;SDS011;3168;51.684;6.954;2022-10-29T05:32:14;4.60;;;4.20;;
6269;SDS011;3168;51.684;6.954;2022-10-29T05:34:40;5.17;;;4.60;;
6269;SDS011;3168;51.684;6.954;2022-10-29T05:37:06;6.47;;;4.53;;
6269;SDS011;3168;51.684;6.954;2022-10-29T05:39:31;6.78;;;4.35;;
6269;SDS011;3168;51.684;6.954;2022-10-29T05:41:57;12.80;;;3.80;;
6269;SDS011;3168;51.684;6.954;2022-10-29T05:44:23;5.83;;;3.50;;
6269;SDS011;3168;51.684;6.954;2022-10-29T05:46:49;4.43;;;4.10;;
6269;SDS011;3168;51.684;6.954;2022-10-29T05:49:21;3.87;;;3.67;;
6269;SDS011;3168;51.684;6.954;2022-10-29T05:51:48;5.63;;;5.20;;
6269;SDS011;3168;51.684;6.954;2022-10-29T05:54:16;6.63;;;4.57;;
6269;SDS011;3168;51.684;6.954;2022-10-29T05:56:43;12.87;;;4.60;;
6269;SDS011;3168;51.684;6.954;2022-10-29T05:59:08;4.87;;;4.47;;
6269;SDS011;3168;51.684;6.954;2022-10-29T06:01:34;4.80;;;4.00;;
6269;SDS011;3168;51.684;6.954;2022-10-29T06:04:00;6.17;;;3.80;;
6269;SDS011;3168;51.684;6.954;2022-10-29T06:06:26;40.97;;;4.90;;
6269;SDS011;3168;51.684;6.954;2022-10-29T06:08:52;4.47;;;4.27;;
6269;SDS011;3168;51.684;6.954;2022-10-29T06:11:17;8.50;;;4.50;;
6269;SDS011;3168;51.684;6.954;2022-10-29T06:13:43;4.90;;;4.30;;
6269;SDS011;3168;51.684;6.954;2022-10-29T06:16:10;5.83;;;5.33;;
6269;SDS011;3168;51.684;6.954;2022-10-29T06:18:35;5.17;;;3.87;;
6269;SDS011;3168;51.684;6.954;2022-10-29T06:21:01;7.27;;;5.17;;
6269;SDS011;3168;51.684;6.954;2022-10-29T06:23:27;6.70;;;5.27;;
6269;SDS011;3168;51.684;6.954;2022-10-29T06:25:53;4.40;;;4.07;;
6269;SDS011;3168;51.684;6.954;2022-10-29T06:28:19;7.60;;;5.47;;
6269;SDS011;3168;51.684;6.954;2022-10-29T06:30:45;9.47;;;5.07;;
6269;SDS011;3168;51.684;6.954;2022-10-29T06:33:10;5.63;;;4.90;;
6269;SDS011;3168;51.684;6.954;2022-10-29T06:35:36;8.37;;;5.67;;
6269;SDS011;3168;51.684;6.954;2022-10-29T06:38:02;8.00;;;5.17;;
6269;SDS011;3168;51.684;6.954;2022-10-29T06:40:28;12.00;;;4.80;;
6269;SDS011;3168;51.684;6.954;2022-10-29T06:42:58;15.47;;;5.77;;
6269;SDS011;3168;51.684;6.954;2022-10-29T06:45:24;6.60;;;5.70;;
6269;SDS011;3168;51.684;6.954;2022-10-29T06:47:50;7.20;;;5.90;;
6269;SDS011;3168;51.684;6.954;2022-10-29T06:50:16;6.43;;;4.80;;
6269;SDS011;3168;51.684;6.954;2022-10-29T06:52:41;11.93;;;5.67;;
6269;SDS011;3168;51.684;6.954;2022-10-29T06:55:08;6.03;;;5.10;;
6269;SDS011;3168;51.684;6.954;2022-10-29T06:57:34;10.40;;;7.20;;
6269;SDS011;3168;51.684;6.954;2022-10-29T06:59:59;6.73;;;5.57;;
6269;SDS011;3168;51.684;6.954;2022-10-29T07:02:25;7.50;;;5.90;;
6269;SDS011;3168;51.684;6.954;2022-10-29T07:04:51;14.80;;;4.90;;
6269;SDS011;3168;51.684;6.954;2022-10-29T07:07:17;8.33;;;5.53;;
6269;SDS011;3168;51.684;6.954;2022-10-29T07:09:43;11.77;;;5.17;;
6269;SDS011;3168;51.684;6.954;2022-10-29T07:12:09;13.20;;;5.80;;
6269;SDS011;3168;51.684;6.954;2022-10-29T07:14:34;19.13;;;6.90;;
6269;SDS011;3168;51.684;6.954;2022-10-29T07:17:00;5.43;;;4.93;;
6269;SDS011;3168;51.684;6.954;2022-10-29T07:19:26;21.50;;;7.00;;
6269;SDS011;3168;51.684;6.954;2022-10-29T07:21:52;10.33;;;5.80;;
6269;SDS011;3168;51.684;6.954;2022-10-29T07:24:18;9.50;;;4.83;;
6269;SDS011;3168;51.684;6.954;2022-10-29T07:26:43;6.07;;;5.47;;
6269;SDS011;3168;51.684;6.954;2022-10-29T07:29:09;40.40;;;6.43;;
6269;SDS011;3168;51.684;6.954;2022-10-29T07:31:35;4.97;;;4.60;;
6269;SDS011;3168;51.684;6.954;2022-10-29T07:34:01;14.43;;;6.10;;
6269;SDS011;3168;51.684;6.954;2022-10-29T07:36:28;15.80;;;6.30;;
6269;SDS011;3168;51.684;6.954;2022-10-29T07:38:54;8.10;;;5.43;;
6269;SDS011;3168;51.684;6.954;2022-10-29T07:41:20;6.60;;;5.13;;
6269;SDS011;3168;51.684;6.954;2022-10-29T07:43:46;8.83;;;5.30;;
6269;SDS011;3168;51.684;6.954;2022-10-29T07:46:11;10.33;;;5.90;;
6269;SDS011;3168;51.684;6.954;2022-10-29T07:48:37;11.43;;;5.50;;
6269;SDS011;3168;51.684;6.954;2022-10-29T07:51:03;5.77;;;5.37;;
6269;SDS011;3168;51.684;6.954;2022-10-29T07:53:29;11.30;;;6.90;;
6269;SDS011;3168;51.684;6.954;2022-10-29T07:55:55;7.57;;;6.80;;
6269;SDS011;3168;51.684;6.954;2022-10-29T07:58:21;10.73;;;6.20;;
6269;SDS011;3168;51.684;6.954;2022-10-29T08:00:47;9.33;;;6.40;;
6269;SDS011;3168;51.684;6.954;2022-10-29T08:03:12;9.90;;;7.03;;
6269;SDS011;3168;51.684;6.954;2022-10-29T08:05:38;6.90;;;5.90;;
6269;SDS011;3168;51.684;6.954;2022-10-29T08:08:04;7.57;;;4.87;;
6269;SDS011;3168;51.684;6.954;2022-10-29T08:10:32;12.50;;;5.63;;
6269;SDS011;3168;51.684;6.954;2022-10-29T08:12:57;13.87;;;5.83;;
6269;SDS011;3168;51.684;6.954;2022-10-29T08:15:23;6.27;;;4.90;;
6269;SDS011;3168;51.684;6.954;2022-10-29T08:17:48;6.67;;;5.90;;
6269;SDS011;3168;51.684;6.954;2022-10-29T08:20:14;26.13;;;6.03;;
6269;SDS011;3168;51.684;6.954;2022-10-29T08:22:40;7.53;;;6.13;;
6269;SDS011;3168;51.684;6.954;2022-10-29T08:25:06;11.73;;;4.67;;
6269;SDS011;3168;51.684;6.954;2022-10-29T08:27:32;5.97;;;5.57;;
6269;SDS011;3168;51.684;6.954;2022-10-29T08:29:58;6.03;;;5.43;;
6269;SDS011;3168;51.684;6.954;2022-10-29T08:32:23;5.10;;;4.83;;
6269;SDS011;3168;51.684;6.954;2022-10-29T08:34:49;6.93;;;3.93;;
6269;SDS011;3168;51.684;6.954;2022-10-29T08:37:15;5.63;;;5.23;;
6269;SDS011;3168;51.684;6.954;2022-10-29T08:39:41;6.23;;;5.67;;
6269;SDS011;3168;51.684;6.954;2022-10-29T08:42:12;5.93;;;4.97;;
6269;SDS011;3168;51.684;6.954;2022-10-29T08:44:58;5.83;;;5.33;;
6269;SDS011;3168;51.684;6.954;2022-10-29T08:47:24;10.23;;;5.27;;
6269;SDS011;3168;51.684;6.954;2022-10-29T08:50:28;5.60;;;4.80;;
6269;SDS011;3168;51.684;6.954;2022-10-29T08:52:41;11.30;;;6.50;;
6269;SDS011;3168;51.684;6.954;2022-10-29T08:55:13;6.30;;;5.37;;
6269;SDS011;3168;51.684;6.954;2022-10-29T08:57:42;7.30;;;5.40;;
6269;SDS011;3168;51.684;6.954;2022-10-29T09:00:13;5.43;;;5.00;;
6269;SDS011;3168;51.684;6.954;2022-10-29T09:02:38;4.63;;;4.17;;
6269;SDS011;3168;51.684;6.954;2022-10-29T09:05:05;20.43;;;5.90;;
6269;SDS011;3168;51.684;6.954;2022-10-29T09:07:52;7.30;;;4.80;;
6269;SDS011;3168;51.684;6.954;2022-10-29T09:10:23;5.03;;;4.37;;
6269;SDS011;3168;51.684;6.954;2022-10-29T09:15:24;5.27;;;4.80;;
6269;SDS011;3168;51.684;6.954;2022-10-29T09:17:58;17.60;;;5.00;;
6269;SDS011;3168;51.684;6.954;2022-10-29T09:21:17;9.70;;;5.20;;
6269;SDS011;3168;51.684;6.954;2022-10-29T09:23:34;6.57;;;5.90;;
6269;SDS011;3168;51.684;6.954;2022-10-29T09:26:11;5.87;;;5.40;;
6269;SDS011;3168;51.684;6.954;2022-10-29T09:28:26;5.07;;;4.57;;
6269;SDS011;3168;51.684;6.954;2022-10-29T09:33:26;3.87;;;3.63;;
6269;SDS011;3168;51.684;6.954;2022-10-29T09:35:53;4.20;;;3.77;;
6269;SDS011;3168;51.684;6.954;2022-10-29T09:38:19;13.03;;;4.97;;
6269;SDS011;3168;51.684;6.954;2022-10-29T09:40:43;8.33;;;4.47;;
6269;SDS011;3168;51.684;6.954;2022-10-29T09:43:14;27.48;;;5.68;;
6269;SDS011;3168;51.684;6.954;2022-10-29T09:45:45;4.97;;;4.33;;
6269;SDS011;3168;51.684;6.954;2022-10-29T09:49:21;15.10;;;5.20;;
6269;SDS011;3168;51.684;6.954;2022-10-29T09:51:27;5.90;;;4.40;;
6269;SDS011;3168;51.684;6.954;2022-10-29T09:53:40;12.43;;;6.50;;
6269;SDS011;3168;51.684;6.954;2022-10-29T09:56:06;5.20;;;4.70;;
6269;SDS011;3168;51.684;6.954;2022-10-29T09:58:32;14.13;;;4.93;;
6269;SDS011;3168;51.684;6.954;2022-10-29T10:00:57;18.77;;;4.70;;
6269;SDS011;3168;51.684;6.954;2022-10-29T10:03:28;3.97;;;3.67;;
6269;SDS011;3168;51.684;6.954;2022-10-29T10:05:55;4.43;;;4.03;;
6269;SDS011;3168;51.684;6.954;2022-10-29T10:08:20;4.73;;;3.23;;
6269;SDS011;3168;51.684;6.954;2022-10-29T10:10:54;5.80;;;3.57;;
6269;SDS011;3168;51.684;6.954;2022-10-29T10:13:19;12.80;;;3.63;;
6269;SDS011;3168;51.684;6.954;2022-10-29T10:15:49;9.70;;;2.60;;
6269;SDS011;3168;51.684;6.954;2022-10-29T10:18:17;12.47;;;4.30;;
6269;SDS011;3168;51.684;6.954;2022-10-29T10:20:44;6.27;;;3.27;;
6269;SDS011;3168;51.684;6.954;2022-10-29T10:23:18;3.70;;;2.37;;
6269;SDS011;3168;51.684;6.954;2022-10-29T10:25:44;8.20;;;2.63;;
6269;SDS011;3168;51.684;6.954;2022-10-29T10:30:41;2.50;;;2.40;;
6269;SDS011;3168;51.684;6.954;2022-10-29T10:33:10;7.90;;;3.30;;
6269;SDS011;3168;51.684;6.954;2022-10-29T10:35:35;2.90;;;2.70;;
6269;SDS011;3168;51.684;6.954;2022-10-29T10:38:05;2.63;;;2.53;;
6269;SDS011;3168;51.684;6.954;2022-10-29T10:40:27;4.40;;;3.47;;
6269;SDS011;3168;51.684;6.954;2022-10-29T10:42:52;6.50;;;3.60;;
6269;SDS011;3168;51.684;6.954;2022-10-29T10:45:23;2.83;;;2.73;;
6269;SDS011;3168;51.684;6.954;2022-10-29T10:47:49;3.23;;;2.73;;
6269;SDS011;3168;51.684;6.954;2022-10-29T10:50:20;2.60;;;2.37;;
6269;SDS011;3168;51.684;6.954;2022-10-29T10:52:46;4.60;;;4.07;;
6269;SDS011;3168;51.684;6.954;2022-10-29T10:55:19;3.77;;;2.73;;
6269;SDS011;3168;51.684;6.954;2022-10-29T11:00:41;2.70;;;2.60;;
6269;SDS011;3168;51.684;6.954;2022-10-29T11:03:16;3.87;;;3.57;;
6269;SDS011;3168;51.684;6.954;2022-10-29T11:05:55;5.73;;;4.30;;
6269;SDS011;3168;51.684;6.954;2022-10-29T11:08:23;3.60;;;3.40;;
6269;SDS011;3168;51.684;6.954;2022-10-29T11:10:52;5.10;;;2.97;;
6269;SDS011;3168;51.684;6.954;2022-10-29T11:13:19;4.87;;;3.40;;
6269;SDS011;3168;51.684;6.954;2022-10-29T11:15:46;9.50;;;2.23;;
6269;SDS011;3168;51.684;6.954;2022-10-29T11:18:17;5.40;;;2.90;;
6269;SDS011;3168;51.684;6.954;2022-10-29T11:20:44;3.53;;;3.33;;
6269;SDS011;3168;51.684;6.954;2022-10-29T11:23:20;4.10;;;3.17;;
6269;SDS011;3168;51.684;6.954;2022-10-29T11:25:42;7.47;;;3.43;;
6269;SDS011;3168;51.684;6.954;2022-10-29T11:28:18;3.70;;;3.50;;
6269;SDS011;3168;51.684;6.954;2022-10-29T11:30:43;5.60;;;3.30;;
6269;SDS011;3168;51.684;6.954;2022-10-29T11:35:52;11.83;;;3.10;;
6269;SDS011;3168;51.684;6.954;2022-10-29T11:38:40;5.50;;;2.83;;
6269;SDS011;3168;51.684;6.954;2022-10-29T11:41:18;3.40;;;3.20;;
6269;SDS011;3168;51.684;6.954;2022-10-29T11:43:42;3.27;;;2.63;;
6269;SDS011;3168;51.684;6.954;2022-10-29T11:46:30;3.83;;;3.23;;
6269;SDS011;3168;51.684;6.954;2022-10-29T11:52:07;12.30;;;2.83;;
6269;SDS011;3168;51.684;6.954;2022-10-29T12:00:09;3.07;;;2.57;;
6269;SDS011;3168;51.684;6.954;2022-10-29T12:02:48;2.53;;;2.33;;
6269;SDS011;3168;51.684;6.954;2022-10-29T12:09:00;2.50;;;2.40;;
6269;SDS011;3168;51.684;6.954;2022-10-29T12:10:36;5.03;;;2.00;;
6269;SDS011;3168;51.684;6.954;2022-10-29T12:13:37;11.00;;;2.73;;
6269;SDS011;3168;51.684;6.954;2022-10-29T12:15:46;2.63;;;2.37;;
6269;SDS011;3168;51.684;6.954;2022-10-29T12:18:15;9.73;;;2.70;;
6269;SDS011;3168;51.684;6.954;2022-10-29T12:20:58;3.40;;;3.10;;
6269;SDS011;3168;51.684;6.954;2022-10-29T12:23:36;3.70;;;3.10;;
6269;SDS011;3168;51.684;6.954;2022-10-29T12:26:08;6.00;;;2.90;;
6269;SDS011;3168;51.684;6.954;2022-10-29T12:28:40;4.33;;;3.50;;
6269;SDS011;3168;51.684;6.954;2022-10-29T12:31:21;3.77;;;2.80;;
6269;SDS011;3168;51.684;6.954;2022-10-29T12:33:48;4.50;;;2.97;;
6269;SDS011;3168;51.684;6.954;2022-10-29T12:36:15;3.57;;;2.07;;
6269;SDS011;3168;51.684;6.954;2022-10-29T12:38:40;2.83;;;2.63;;
6269;SDS011;3168;51.684;6.954;2022-10-29T12:41:08;9.70;;;2.53;;
6269;SDS011;3168;51.684;6.954;2022-10-29T12:43:33;5.30;;;2.90;;
6269;SDS011;3168;51.684;6.954;2022-10-29T12:46:04;10.33;;;3.00;;
6269;SDS011;3168;51.684;6.954;2022-10-29T12:48:46;2.70;;;2.60;;
6269;SDS011;3168;51.684;6.954;2022-10-29T12:51:26;2.45;;;2.35;;
6269;SDS011;3168;51.684;6.954;2022-10-29T12:56:45;2.17;;;2.07;;
6269;SDS011;3168;51.684;6.954;2022-10-29T13:01:46;2.70;;;2.50;;
6269;SDS011;3168;51.684;6.954;2022-10-29T13:06:55;3.53;;;2.37;;
6269;SDS011;3168;51.684;6.954;2022-10-29T13:09:17;2.97;;;2.77;;
6269;SDS011;3168;51.684;6.954;2022-10-29T13:11:47;10.00;;;3.00;;
6269;SDS011;3168;51.684;6.954;2022-10-29T13:14:12;6.50;;;3.60;;
6269;SDS011;3168;51.684;6.954;2022-10-29T13:16:38;4.73;;;3.47;;
6269;SDS011;3168;51.684;6.954;2022-10-29T13:19:06;2.87;;;2.23;;
6269;SDS011;3168;51.684;6.954;2022-10-29T13:24:12;6.80;;;3.23;;
6269;SDS011;3168;51.684;6.954;2022-10-29T13:29:11;2.63;;;2.43;;
6269;SDS011;3168;51.684;6.954;2022-10-29T13:31:42;14.67;;;3.47;;
6269;SDS011;3168;51.684;6.954;2022-10-29T13:34:06;5.63;;;3.80;;
6269;SDS011;3168;51.684;6.954;2022-10-29T13:36:34;5.40;;;2.17;;
6269;SDS011;3168;51.684;6.954;2022-10-29T13:39:00;4.47;;;3.13;;
6269;SDS011;3168;51.684;6.954;2022-10-29T13:44:11;9.30;;;2.80;;
6269;SDS011;3168;51.684;6.954;2022-10-29T13:49:14;3.53;;;2.80;;
6269;SDS011;3168;51.684;6.954;2022-10-29T13:51:43;16.77;;;2.03;;
6269;SDS011;3168;51.684;6.954;2022-10-29T13:54:27;3.00;;;2.80;;
6269;SDS011;3168;51.684;6.954;2022-10-29T13:56:53;3.33;;;2.50;;
6269;SDS011;3168;51.684;6.954;2022-10-29T13:59:21;2.43;;;2.33;;
6269;SDS011;3168;51.684;6.954;2022-10-29T14:01:49;2.50;;;2.30;;
6269;SDS011;3168;51.684;6.954;2022-10-29T14:04:20;3.40;;;3.00;;
6269;SDS011;3168;51.684;6.954;2022-10-29T14:06:47;16.50;;;3.43;;
6269;SDS011;3168;51.684;6.954;2022-10-29T14:09:18;3.33;;;2.40;;
6269;SDS011;3168;51.684;6.954;2022-10-29T14:11:42;2.30;;;2.13;;
6269;SDS011;3168;51.684;6.954;2022-10-29T14:14:18;3.53;;;2.67;;
6269;SDS011;3168;51.684;6.954;2022-10-29T14:16:38;3.47;;;2.37;;
6269;SDS011;3168;51.684;6.954;2022-10-29T14:21:37;3.40;;;2.60;;
6269;SDS011;3168;51.684;6.954;2022-10-29T14:24:04;5.90;;;2.70;;
6269;SDS011;3168;51.684;6.954;2022-10-29T14:26:30;2.63;;;2.43;;
6269;SDS011;3168;51.684;6.954;2022-10-29T14:28:55;7.80;;;2.07;;
6269;SDS011;3168;51.684;6.954;2022-10-29T14:31:21;1.93;;;1.77;;
6269;SDS011;3168;51.684;6.954;2022-10-29T14:33:52;14.20;;;3.50;;
6269;SDS011;3168;51.684;6.954;2022-10-29T14:36:25;4.20;;;3.00;;
6269;SDS011;3168;51.684;6.954;2022-10-29T14:39:16;3.60;;;2.30;;
6269;SDS011;3168;51.684;6.954;2022-10-29T14:41:39;3.00;;;2.53;;
6269;SDS011;3168;51.684;6.954;2022-10-29T14:44:07;3.57;;;2.70;;
6269;SDS011;3168;51.684;6.954;2022-10-29T14:46:34;5.17;;;4.67;;
6269;SDS011;3168;51.684;6.954;2022-10-29T14:49:20;4.80;;;2.60;;
6269;SDS011;3168;51.684;6.954;2022-10-29T14:51:49;6.30;;;2.67;;
6269;SDS011;3168;51.684;6.954;2022-10-29T14:54:16;16.97;;;4.20;;
6269;SDS011;3168;51.684;6.954;2022-10-29T14:56:53;3.10;;;1.90;;
6269;SDS011;3168;51.684;6.954;2022-10-29T14:59:17;10.20;;;3.00;;
6269;SDS011;3168;51.684;6.954;2022-10-29T15:01:45;4.47;;;3.37;;
6269;SDS011;3168;51.684;6.954;2022-10-29T15:04:18;4.90;;;3.53;;
6269;SDS011;3168;51.684;6.954;2022-10-29T15:06:44;5.53;;;2.77;;
6269;SDS011;3168;51.684;6.954;2022-10-29T15:09:11;2.80;;;2.60;;
6269;SDS011;3168;51.684;6.954;2022-10-29T15:11:37;5.37;;;2.97;;
6269;SDS011;3168;51.684;6.954;2022-10-29T15:14:19;4.33;;;2.93;;
6269;SDS011;3168;51.684;6.954;2022-10-29T15:16:45;18.30;;;3.70;;
6269;SDS011;3168;51.684;6.954;2022-10-29T15:19:10;3.27;;;2.90;;
6269;SDS011;3168;51.684;6.954;2022-10-29T15:21:38;8.93;;;5.27;;
6269;SDS011;3168;51.684;6.954;2022-10-29T15:24:04;13.77;;;6.10;;
6269;SDS011;3168;51.684;6.954;2022-10-29T15:26:29;3.90;;;3.63;;
6269;SDS011;3168;51.684;6.954;2022-10-29T15:28:55;12.03;;;7.43;;
6269;SDS011;3168;51.684;6.954;2022-10-29T15:31:24;18.80;;;11.40;;
6269;SDS011;3168;51.684;6.954;2022-10-29T15:33:50;11.23;;;6.23;;
6269;SDS011;3168;51.684;6.954;2022-10-29T15:36:15;4.03;;;3.70;;
6269;SDS011;3168;51.684;6.954;2022-10-29T15:41:33;9.57;;;4.90;;
6269;SDS011;3168;51.684;6.954;2022-10-29T15:44:00;6.77;;;4.63;;
6269;SDS011;3168;51.684;6.954;2022-10-29T15:46:27;10.57;;;3.50;;
6269;SDS011;3168;51.684;6.954;2022-10-29T15:48:53;4.03;;;3.83;;
6269;SDS011;3168;51.684;6.954;2022-10-29T15:51:21;4.27;;;3.37;;
6269;SDS011;3168;51.684;6.954;2022-10-29T15:53:45;7.47;;;4.13;;
6269;SDS011;3168;51.684;6.954;2022-10-29T15:56:11;327.17;;;119.60;;
6269;SDS011;3168;51.684;6.954;2022-10-29T15:58:37;608.27;;;298.40;;
6269;SDS011;3168;51.684;6.954;2022-10-29T16:01:03;538.10;;;261.83;;
6269;SDS011;3168;51.684;6.954;2022-10-29T16:03:29;329.23;;;139.87;;
6269;SDS011;3168;51.684;6.954;2022-10-29T16:05:55;396.13;;;166.47;;
6269;SDS011;3168;51.684;6.954;2022-10-29T16:08:25;201.37;;;84.80;;
6269;SDS011;3168;51.684;6.954;2022-10-29T16:10:51;9.67;;;6.53;;
6269;SDS011;3168;51.684;6.954;2022-10-29T16:13:17;9.10;;;4.40;;
6269;SDS011;3168;51.684;6.954;2022-10-29T16:15:43;4.13;;;3.00;;